Unity N — V7WI2 — position and weather

sailwx.info

Track history (hours):
 
Tides and Currents Weather Stations Pressure Air Temp Water Temp Dewpoint Dewpoint Depression Visibility Wind Speed Wind Dir Waves Ship Positions

Unity N

Last reported at 2018-Apr-19 15:05 UTC. Time now 2018-Apr-21 23:25 UTC.
Position N 28°24' W 013°20'.

Length 229 m; draft 9.1 m.

Type: Cargo ship. MMSI: 538006451.

Date/timePositionNaut miles runAvg speedWind from/ knotsBaromVisibWave heightAir tempDewpointWater temp
2018-Apr-19 15:05N 28°24' W 013°20'112.0
2018-Apr-19 15:00N 28°24' W 013°19'611.9
2018-Apr-19 14:30N 28°29' W 013°15'611.8
2018-Apr-19 14:00N 28°33' W 013°10'611.8
2018-Apr-19 13:28N 28°37' W 013°05'612.1
2018-Apr-19 13:00N 28°41' W 013°00'712.0
2018-Apr-19 12:25N 28°47' W 012°55'612.0
2018-Apr-19 11:53N 28°51' W 012°50'512.1
2018-Apr-19 11:30N 28°55' W 012°47'612.2
2018-Apr-19 10:59N 29°01' W 012°45'612.1
2018-Apr-19 10:28N 29°07' W 012°42'612.1
2018-Apr-19 10:00N 29°12' W 012°39'611.5
2018-Apr-19 09:30N 29°17' W 012°37'612.1
2018-Apr-19 09:00N 29°23' W 012°36'812.9
2018-Apr-19 08:25N 29°31' W 012°35'511.9
2018-Apr-19 07:59N 29°36' W 012°34'711.5
2018-Apr-19 07:22N 29°43' W 012°32'711.3
2018-Apr-19 06:43N 29°50' W 012°29'311.7
2018-Apr-19 06:30N 29°52' W 012°28'811.5
2018-Apr-19 05:49N 29°59' W 012°23'611.2
2018-Apr-19 05:15N 30°04' W 012°19'611.1
2018-Apr-19 04:41N 30°09' W 012°15'210.9
2018-Apr-19 04:29N 30°11' W 012°14'510.9
2018-Apr-19 04:00N 30°15' W 012°10'510.9
2018-Apr-19 03:30N 30°20' W 012°07'611.1
2018-Apr-19 03:00N 30°24' W 012°03'611.3
2018-Apr-19 02:30N 30°29' W 011°59'811.5
2018-Apr-19 01:50N 30°34' W 011°53'411.5
2018-Apr-19 01:30N 30°37' W 011°50'611.6
2018-Apr-19 01:00N 30°42' W 011°46'611.7
2018-Apr-19 00:30N 30°46' W 011°41'611.8
2018-Apr-19 00:00N 30°51' W 011°37'611.7
2018-Apr-18 23:30N 30°55' W 011°33'611.8
2018-Apr-18 23:00N 30°60' W 011°28'611.7
2018-Apr-18 22:30N 31°05' W 011°24'611.5
2018-Apr-18 22:00N 31°09' W 011°20'611.7
2018-Apr-18 21:28N 31°14' W 011°15'511.6
2018-Apr-18 21:00N 31°18' W 011°11'611.6
2018-Apr-18 20:30N 31°23' W 011°07'611.7
2018-Apr-18 19:59N 31°27' W 011°03'1011.6
2018-Apr-18 19:06N 31°36' W 010°55'111.5
2018-Apr-18 19:00N 31°36' W 010°54'611.5
2018-Apr-18 18:30N 31°41' W 010°50'611.4
2018-Apr-18 18:00N 31°45' W 010°46'611.4
2018-Apr-18 17:30N 31°49' W 010°41'611.3
2018-Apr-18 16:59N 31°54' W 010°37'611.8
2018-Apr-18 16:30N 31°59' W 010°35'1611.8
2018-Apr-18 15:07N 32°14' W 010°28'8411.0
2018-Apr-18 07:31N 33°33' W 009°55'011.6
2018-Apr-18 07:30N 33°33' W 009°55'2011.5
2018-Apr-18 05:46N 33°49' W 009°39'411.7
2018-Apr-18 05:26N 33°52' W 009°37'811.7
2018-Apr-18 04:46N 33°59' W 009°32'4711.2
2018-Apr-18 00:35N 34°29' W 008°49'111.2
2018-Apr-18 00:27N 34°29' W 008°47'811.3
2018-Apr-17 23:45N 34°34' W 008°39'311.3
2018-Apr-17 23:30N 34°35' W 008°36'1611.5
2018-Apr-17 22:05N 34°45' W 008°20'111.3
2018-Apr-17 22:00N 34°45' W 008°19'711.2
2018-Apr-17 21:24N 34°49' W 008°12'3711.3
2018-Apr-17 18:06N 35°10' W 007°35'111.5
2018-Apr-17 18:00N 35°11' W 007°34'332 9.0
2018-Apr-16 05:11N 36°55' W 001°04'510.4
2018-Apr-16 04:45N 36°57' W 000°59'310.4
2018-Apr-16 04:28N 36°58' W 000°56'610.5
2018-Apr-16 03:53N 37°02' W 000°49'610.5
2018-Apr-16 03:19N 37°04' W 000°43'410.5
2018-Apr-16 02:56N 37°06' W 000°38'1510.4
2018-Apr-16 01:31N 37°14' W 000°22'010.3
2018-Apr-16 01:30N 37°14' W 000°22'610.9
2018-Apr-16 00:59N 37°17' W 000°16'610.4
2018-Apr-16 00:22N 37°20' W 000°09'710.3
2018-Apr-15 23:38N 37°24' W 000°01'110.5
2018-Apr-15 23:30N 37°24' E 000°01'510.4
2018-Apr-15 23:00N 37°27' E 000°06'510.3
2018-Apr-15 22:30N 37°30' E 000°12'910.2
2018-Apr-15 21:35N 37°34' E 000°22'110.1
2018-Apr-15 21:30N 37°35' E 000°23'11 9.6
2018-Apr-15 20:20N 37°40' E 000°35'1910.0
2018-Apr-15 18:25N 37°50' E 000°56'410.4
2018-Apr-15 18:00N 37°52' E 001°01'510.4
2018-Apr-15 17:30N 37°55' E 001°06'1110.7
2018-Apr-15 16:29N 38°01' E 001°18'910.9
2018-Apr-15 15:38N 38°05' E 001°28'4310.9
2018-Apr-15 11:38N 38°28' E 002°16'411.5
2018-Apr-15 11:17N 38°30' E 002°20'511.6
2018-Apr-15 10:53N 38°32' E 002°25'411.7
2018-Apr-15 10:30N 38°34' E 002°30'611.7
2018-Apr-15 10:00N 38°37' E 002°37'611.7
2018-Apr-15 09:30N 38°40' E 002°44'911.2
2018-Apr-15 08:44N 38°44' E 002°53'1311.2
2018-Apr-15 07:36N 38°51' E 003°07'111.2
2018-Apr-15 07:29N 38°51' E 003°08'  
Track history (hours):
 
Tides and Currents Weather Stations Pressure Air Temp Water Temp Dewpoint Dewpoint Depression Visibility Wind Speed Wind Dir Waves Ship Positions

Unity N

Last reported at 2018-Apr-19 15:05 UTC. Time now 2018-Apr-21 23:25 UTC.
Position N 28°24' W 013°20'.

Length 229 m; draft 9.1 m.

Type: Cargo ship. MMSI: 538006451.

Date/timePositionNaut miles runAvg speedWind from/ knotsBaromVisibWave heightAir tempDewpointWater temp
2018-Apr-19 15:05N 28°24' W 013°20'112.0
2018-Apr-19 15:00N 28°24' W 013°19'611.9
2018-Apr-19 14:30N 28°29' W 013°15'611.8
2018-Apr-19 14:00N 28°33' W 013°10'611.8
2018-Apr-19 13:28N 28°37' W 013°05'612.1
2018-Apr-19 13:00N 28°41' W 013°00'712.0
2018-Apr-19 12:25N 28°47' W 012°55'612.0
2018-Apr-19 11:53N 28°51' W 012°50'512.1
2018-Apr-19 11:30N 28°55' W 012°47'612.2
2018-Apr-19 10:59N 29°01' W 012°45'612.1
2018-Apr-19 10:28N 29°07' W 012°42'612.1
2018-Apr-19 10:00N 29°12' W 012°39'611.5
2018-Apr-19 09:30N 29°17' W 012°37'612.1
2018-Apr-19 09:00N 29°23' W 012°36'812.9
2018-Apr-19 08:25N 29°31' W 012°35'511.9
2018-Apr-19 07:59N 29°36' W 012°34'711.5
2018-Apr-19 07:22N 29°43' W 012°32'711.3
2018-Apr-19 06:43N 29°50' W 012°29'311.7
2018-Apr-19 06:30N 29°52' W 012°28'811.5
2018-Apr-19 05:49N 29°59' W 012°23'611.2
2018-Apr-19 05:15N 30°04' W 012°19'611.1
2018-Apr-19 04:41N 30°09' W 012°15'210.9
2018-Apr-19 04:29N 30°11' W 012°14'510.9
2018-Apr-19 04:00N 30°15' W 012°10'510.9
2018-Apr-19 03:30N 30°20' W 012°07'611.1
2018-Apr-19 03:00N 30°24' W 012°03'611.3
2018-Apr-19 02:30N 30°29' W 011°59'811.5
2018-Apr-19 01:50N 30°34' W 011°53'411.5
2018-Apr-19 01:30N 30°37' W 011°50'611.6
2018-Apr-19 01:00N 30°42' W 011°46'611.7
2018-Apr-19 00:30N 30°46' W 011°41'611.8
2018-Apr-19 00:00N 30°51' W 011°37'611.7
2018-Apr-18 23:30N 30°55' W 011°33'611.8
2018-Apr-18 23:00N 30°60' W 011°28'611.7
2018-Apr-18 22:30N 31°05' W 011°24'611.5
2018-Apr-18 22:00N 31°09' W 011°20'611.7
2018-Apr-18 21:28N 31°14' W 011°15'511.6
2018-Apr-18 21:00N 31°18' W 011°11'611.6
2018-Apr-18 20:30N 31°23' W 011°07'611.7
2018-Apr-18 19:59N 31°27' W 011°03'1011.6
2018-Apr-18 19:06N 31°36' W 010°55'111.5
2018-Apr-18 19:00N 31°36' W 010°54'611.5
2018-Apr-18 18:30N 31°41' W 010°50'611.4
2018-Apr-18 18:00N 31°45' W 010°46'611.4
2018-Apr-18 17:30N 31°49' W 010°41'611.3
2018-Apr-18 16:59N 31°54' W 010°37'611.8
2018-Apr-18 16:30N 31°59' W 010°35'1611.8
2018-Apr-18 15:07N 32°14' W 010°28'8411.0
2018-Apr-18 07:31N 33°33' W 009°55'011.6
2018-Apr-18 07:30N 33°33' W 009°55'2011.5
2018-Apr-18 05:46N 33°49' W 009°39'411.7
2018-Apr-18 05:26N 33°52' W 009°37'811.7
2018-Apr-18 04:46N 33°59' W 009°32'4711.2
2018-Apr-18 00:35N 34°29' W 008°49'111.2
2018-Apr-18 00:27N 34°29' W 008°47'811.3
2018-Apr-17 23:45N 34°34' W 008°39'311.3
2018-Apr-17 23:30N 34°35' W 008°36'1611.5
2018-Apr-17 22:05N 34°45' W 008°20'111.3
2018-Apr-17 22:00N 34°45' W 008°19'711.2
2018-Apr-17 21:24N 34°49' W 008°12'3711.3
2018-Apr-17 18:06N 35°10' W 007°35'111.5
2018-Apr-17 18:00N 35°11' W 007°34'332 9.0
2018-Apr-16 05:11N 36°55' W 001°04'510.4
2018-Apr-16 04:45N 36°57' W 000°59'310.4
2018-Apr-16 04:28N 36°58' W 000°56'610.5
2018-Apr-16 03:53N 37°02' W 000°49'610.5
2018-Apr-16 03:19N 37°04' W 000°43'410.5
2018-Apr-16 02:56N 37°06' W 000°38'1510.4
2018-Apr-16 01:31N 37°14' W 000°22'010.3
2018-Apr-16 01:30N 37°14' W 000°22'610.9
2018-Apr-16 00:59N 37°17' W 000°16'610.4
2018-Apr-16 00:22N 37°20' W 000°09'710.3
2018-Apr-15 23:38N 37°24' W 000°01'110.5
2018-Apr-15 23:30N 37°24' E 000°01'510.4
2018-Apr-15 23:00N 37°27' E 000°06'510.3
2018-Apr-15 22:30N 37°30' E 000°12'910.2
2018-Apr-15 21:35N 37°34' E 000°22'110.1
2018-Apr-15 21:30N 37°35' E 000°23'11 9.6
2018-Apr-15 20:20N 37°40' E 000°35'1910.0
2018-Apr-15 18:25N 37°50' E 000°56'410.4
2018-Apr-15 18:00N 37°52' E 001°01'510.4
2018-Apr-15 17:30N 37°55' E 001°06'1110.7
2018-Apr-15 16:29N 38°01' E 001°18'910.9
2018-Apr-15 15:38N 38°05' E 001°28'4310.9
2018-Apr-15 11:38N 38°28' E 002°16'411.5
2018-Apr-15 11:17N 38°30' E 002°20'511.6
2018-Apr-15 10:53N 38°32' E 002°25'411.7
2018-Apr-15 10:30N 38°34' E 002°30'611.7
2018-Apr-15 10:00N 38°37' E 002°37'611.7
2018-Apr-15 09:30N 38°40' E 002°44'911.2
2018-Apr-15 08:44N 38°44' E 002°53'1311.2
2018-Apr-15 07:36N 38°51' E 003°07'111.2
2018-Apr-15 07:29N 38°51' E 003°08'  

Dump ship's entire track history